createdAt,value
2022-12-14T00:00:41.153Z,100163.72
2022-12-14T00:01:28.756Z,100166.06
2022-12-14T00:02:15.380Z,100159.97
2022-12-14T00:03:02.130Z,100169.25
2022-12-14T00:03:49.748Z,100160.75
2022-12-14T00:04:36.505Z,100164.16
2022-12-14T00:05:23.163Z,100160.06
2022-12-14T00:06:23.830Z,100159.97
2022-12-14T00:07:10.472Z,100159.66
2022-12-14T00:07:56.955Z,100156.91
2022-12-14T00:08:44.682Z,100156.03
2022-12-14T00:09:31.145Z,100163.44
2022-12-14T00:10:17.762Z,100152.38
2022-12-14T00:11:04.329Z,100153.16
2022-12-14T00:11:51.030Z,100151.38
2022-12-14T00:12:37.773Z,100146.50
2022-12-14T00:13:24.212Z,100149.06
2022-12-14T00:14:10.933Z,100148.97
2022-12-14T00:14:59.647Z,100146.31
2022-12-14T00:15:46.172Z,100149.84
2022-12-14T00:16:34.435Z,100150.81
2022-12-14T00:17:21.036Z,100157.44
2022-12-14T00:18:07.729Z,100145.59
2022-12-14T00:18:56.925Z,100143.03
2022-12-14T00:19:43.416Z,100139.63
2022-12-14T00:20:35.297Z,100136.97
2022-12-14T00:21:22.691Z,100141.19
2022-12-14T00:22:09.321Z,100138.66
2022-12-14T00:22:57.434Z,100137.19
2022-12-14T00:23:45.619Z,100140.81
2022-12-14T00:24:32.240Z,100146.31
2022-12-14T00:25:18.894Z,100148.88
2022-12-14T00:26:15.281Z,100146.25
2022-12-14T00:27:01.830Z,100149.44
2022-12-14T00:27:48.940Z,100152.84
2022-12-14T00:28:36.569Z,100145.34
2022-12-14T00:29:23.040Z,100137.59
2022-12-14T00:30:11.138Z,100144.34
2022-12-14T00:30:58.456Z,100139.28
2022-12-14T00:31:48.728Z,100137.72
2022-12-14T00:32:36.064Z,100132.75
2022-12-14T00:33:22.461Z,100126.88
2022-12-14T00:34:09.309Z,100126.09
2022-12-14T00:34:55.789Z,100120.91
2022-12-14T00:35:42.362Z,100125.97
2022-12-14T00:36:31.200Z,100123.44
2022-12-14T00:37:17.914Z,100131.06
2022-12-14T00:38:04.449Z,100130.19
2022-12-14T00:38:51.112Z,100130.97
2022-12-14T00:39:37.573Z,100132.84
2022-12-14T00:40:24.016Z,100133.72
2022-12-14T00:41:11.445Z,100138.91
2022-12-14T00:41:58.080Z,100135.50
2022-12-14T00:42:44.705Z,100132.06
2022-12-14T00:43:31.828Z,100125.19
2022-12-14T00:44:18.579Z,100126.19
2022-12-14T00:45:07.324Z,100122.00
2022-12-14T00:45:54.502Z,100126.31
2022-12-14T00:46:41.307Z,100117.91
2022-12-14T00:47:28.265Z,100119.53
2022-12-14T00:48:17.319Z,100118.69
2022-12-14T00:49:04.338Z,100117.00
2022-12-14T00:49:51.005Z,100117.19
2022-12-14T00:50:37.830Z,100121.63
2022-12-14T00:51:24.323Z,100119.09
2022-12-14T00:52:10.817Z,100110.66
2022-12-14T00:52:57.435Z,100117.94
2022-12-14T00:53:44.730Z,100120.88
2022-12-14T00:54:31.380Z,100113.25
2022-12-14T00:55:17.865Z,100121.78
2022-12-14T00:56:08.260Z,100121.66
2022-12-14T00:56:54.762Z,100118.25
2022-12-14T00:57:42.392Z,100123.22
2022-12-14T00:58:30.596Z,100121.34
2022-12-14T00:59:21.723Z,100116.94
2022-12-14T01:00:11.473Z,100123.88
2022-12-14T01:01:04.256Z,100111.09
2022-12-14T01:01:50.963Z,100114.50
2022-12-14T01:02:37.561Z,100111.59
2022-12-14T01:03:24.348Z,100109.84
2022-12-14T01:04:17.310Z,100104.63
2022-12-14T01:05:04.571Z,100103.84
2022-12-14T01:05:51.070Z,100102.22
2022-12-14T01:06:37.696Z,100099.53
2022-12-14T01:07:24.150Z,100106.19
2022-12-14T01:08:10.982Z,100106.84
2022-12-14T01:08:57.576Z,100106.00
2022-12-14T01:09:44.300Z,100100.78
2022-12-14T01:10:30.705Z,100103.34
2022-12-14T01:11:17.912Z,100107.56
2022-12-14T01:12:04.794Z,100103.34
2022-12-14T01:12:51.778Z,100101.56
2022-12-14T01:13:39.522Z,100097.56
2022-12-14T01:14:26.075Z,100101.09
2022-12-14T01:15:12.580Z,100103.53
2022-12-14T01:16:14.639Z,100093.34
2022-12-14T01:17:01.163Z,100089.25
2022-12-14T01:17:47.646Z,100078.09
2022-12-14T01:18:36.813Z,100085.19
2022-12-14T01:19:23.218Z,100076.75
2022-12-14T01:20:10.485Z,100076.66
2022-12-14T01:21:10.400Z,100076.66
2022-12-14T01:21:57.628Z,100077.44
2022-12-14T01:22:44.055Z,100074.88
2022-12-14T01:23:31.202Z,100077.63
2022-12-14T01:24:17.628Z,100077.63
2022-12-14T01:25:05.743Z,100077.63
2022-12-14T01:25:52.163Z,100069.91
2022-12-14T01:26:39.891Z,100065.59
2022-12-14T01:27:26.481Z,100065.59
2022-12-14T01:28:12.883Z,100066.78
2022-12-14T01:28:59.973Z,100062.88
2022-12-14T01:29:46.572Z,100059.84
2022-12-14T01:30:33.081Z,100064.84
2022-12-14T01:31:23.658Z,100057.88
2022-12-14T01:32:10.234Z,100058.66
2022-12-14T01:32:56.681Z,100055.31
2022-12-14T01:33:45.127Z,100058.75
2022-12-14T01:34:31.570Z,100056.41
2022-12-14T01:35:18.050Z,100047.81
2022-12-14T01:36:08.949Z,100050.63
2022-12-14T01:36:55.452Z,100051.53
2022-12-14T01:37:41.897Z,100044.41
2022-12-14T01:38:28.393Z,100045.25
2022-12-14T01:39:15.945Z,100038.34
2022-12-14T01:40:02.964Z,100039.00
2022-12-14T01:40:49.396Z,100044.88
2022-12-14T01:41:40.218Z,100034.50
2022-12-14T01:42:29.130Z,100040.38
2022-12-14T01:43:15.789Z,100037.91
2022-12-14T01:44:22.656Z,100037.63
2022-12-14T01:45:19.766Z,100047.94
2022-12-14T01:46:06.683Z,100038.59
2022-12-14T01:47:12.421Z,100037.56
2022-12-14T01:48:03.744Z,100040.88
2022-12-14T01:48:56.272Z,100042.31
2022-12-14T01:50:10.986Z,100042.13
2022-12-14T01:50:57.660Z,100038.59
2022-12-14T01:51:52.515Z,100037.44
2022-12-14T01:52:43.856Z,100038.22
2022-12-14T01:53:30.608Z,100041.63
2022-12-14T01:54:17.343Z,100039.31
2022-12-14T01:55:13.450Z,100033.13
2022-12-14T01:55:59.962Z,100037.75
2022-12-14T01:56:48.327Z,100036.44
2022-12-14T01:57:46.191Z,100033.63
2022-12-14T01:58:33.679Z,100030.69
2022-12-14T01:59:31.164Z,100030.47
2022-12-14T02:00:18.126Z,100028.44
2022-12-14T02:01:04.891Z,100023.13
2022-12-14T02:01:53.051Z,100031.44
2022-12-14T02:02:48.362Z,100024.59
2022-12-14T02:03:43.808Z,100033.78
2022-12-14T02:04:32.753Z,100032.81
2022-12-14T02:05:22.974Z,100027.63
2022-12-14T02:06:19.607Z,100018.91
2022-12-14T02:07:06.075Z,100026.16
2022-12-14T02:07:56.033Z,100023.28
2022-12-14T02:08:45.416Z,100020.53
2022-12-14T02:09:39.356Z,100024.19
2022-12-14T02:10:30.309Z,100019.28
2022-12-14T02:11:31.081Z,100013.03
2022-12-14T02:12:27.274Z,100018.69
2022-12-14T02:13:24.189Z,100020.06
2022-12-14T02:14:10.648Z,100011.13
2022-12-14T02:14:58.688Z,100014.84
2022-12-14T02:15:45.829Z,100008.03
2022-12-14T02:16:32.990Z,100007.03
2022-12-14T02:17:20.728Z,100008.53
2022-12-14T02:18:16.850Z,100019.94
2022-12-14T02:19:03.865Z,100015.31
2022-12-14T02:19:51.421Z,100017.66
2022-12-14T02:20:57.860Z,100014.72
2022-12-14T02:22:05.865Z,100009.63
2022-12-14T02:23:08.697Z,100004.91
2022-12-14T02:24:19.417Z,100006.47
2022-12-14T02:25:37.950Z,100007.84
2022-12-14T02:26:48.273Z,100005.09
2022-12-14T02:27:55.010Z,99999.31
2022-12-14T02:29:03.209Z,99987.19
2022-12-14T02:30:06.729Z,99987.94
2022-12-14T02:31:29.254Z,99989.13
2022-12-14T02:32:34.113Z,99984.75
2022-12-14T02:33:39.132Z,99989.84
2022-12-14T02:34:34.463Z,99994.13
2022-12-14T02:35:32.855Z,99986.31
2022-12-14T02:36:38.109Z,99988.84
2022-12-14T02:37:55.032Z,99992.47
2022-12-14T02:39:39.173Z,99985.94
2022-12-14T02:40:38.193Z,99979.16
2022-12-14T02:41:49.390Z,99985.03
2022-12-14T02:43:06.430Z,99980.94
2022-12-14T02:44:31.567Z,99977.53
2022-12-14T02:45:27.273Z,99971.53
2022-12-14T02:46:45.096Z,99973.31
2022-12-14T02:47:46.656Z,99972.56
2022-12-14T02:48:45.011Z,99967.34
2022-12-14T02:49:50.979Z,99979.94
2022-12-14T02:51:19.396Z,99970.69
2022-12-14T02:52:46.084Z,99966.47
2022-12-14T02:54:01.035Z,99967.56
2022-12-14T02:55:03.884Z,99960.06
2022-12-14T02:55:53.316Z,99966.19
2022-12-14T02:56:47.192Z,99952.50
2022-12-14T02:57:44.843Z,99957.59
2022-12-14T02:58:43.088Z,99952.63
2022-12-14T02:59:33.828Z,99954.19
2022-12-14T03:00:20.921Z,99953.41
2022-12-14T03:01:15.571Z,99951.53
2022-12-14T03:02:04.960Z,99953.22
2022-12-14T03:02:53.155Z,99948.78
2022-12-14T03:03:41.412Z,99953.88
2022-12-14T03:04:27.873Z,99952.88
2022-12-14T03:05:14.477Z,99946.91
2022-12-14T03:06:14.461Z,99951.13
2022-12-14T03:07:23.657Z,99952.78
2022-12-14T03:08:16.845Z,99951.00
2022-12-14T03:09:17.336Z,99949.38
2022-12-14T03:10:32.711Z,99940.75
2022-12-14T03:11:27.106Z,99946.03
2022-12-14T03:12:19.359Z,99939.19
2022-12-14T03:13:31.080Z,99935.66
2022-12-14T03:14:42.362Z,99932.22
2022-12-14T03:15:29.963Z,99933.91
2022-12-14T03:16:28.600Z,99935.47
2022-12-14T03:17:19.875Z,99928.63
2022-12-14T03:18:12.894Z,99932.81
2022-12-14T03:18:59.482Z,99933.78
2022-12-14T03:19:53.432Z,99931.38
2022-12-14T03:20:44.831Z,99930.47
2022-12-14T03:21:39.811Z,99927.16
2022-12-14T03:22:41.992Z,99934.69
2022-12-14T03:23:37.829Z,99922.84
2022-12-14T03:24:36.089Z,99931.38
2022-12-14T03:25:32.559Z,99936.66
2022-12-14T03:26:34.464Z,99933.31
2022-12-14T03:27:40.715Z,99935.28
2022-12-14T03:28:49.967Z,99939.72
2022-12-14T03:29:46.948Z,99938.44
2022-12-14T03:30:59.328Z,99941.09
2022-12-14T03:31:57.150Z,99942.72
2022-12-14T03:32:56.148Z,99946.47
2022-12-14T03:33:46.783Z,99943.13
2022-12-14T03:34:45.795Z,99954.00
2022-12-14T03:35:50.043Z,99954.78
2022-12-14T03:36:59.634Z,99948.91
2022-12-14T03:37:54.792Z,99947.34
2022-12-14T03:38:44.998Z,99950.69
2022-12-14T03:39:36.459Z,99950.56
2022-12-14T03:40:46.053Z,99948.72
2022-12-14T03:41:57.613Z,99944.41
2022-12-14T03:42:59.596Z,99951.94
2022-12-14T03:44:11.749Z,99954.38
2022-12-14T03:45:17.936Z,99956.94
2022-12-14T03:46:38.922Z,99957.91
2022-12-14T03:47:44.899Z,99958.69
2022-12-14T03:48:59.418Z,99955.16
2022-12-14T03:49:53.564Z,99950.88
2022-12-14T03:50:56.123Z,99946.56
2022-12-14T03:52:00.887Z,99949.09
2022-12-14T03:52:51.133Z,99945.66
2022-12-14T03:54:01.619Z,99943.13
2022-12-14T03:55:01.367Z,99942.25
2022-12-14T03:56:05.307Z,99946.44
2022-12-14T03:57:09.254Z,99940.69
2022-12-14T03:58:14.262Z,99936.47
2022-12-14T03:59:27.070Z,99943.44
2022-12-14T04:00:20.097Z,99942.72
2022-12-14T04:01:13.586Z,99941.88
2022-12-14T04:02:21.978Z,99944.41
2022-12-14T04:03:27.057Z,99941.09
2022-12-14T04:04:28.985Z,99940.31
2022-12-14T04:05:34.585Z,99940.38
2022-12-14T04:06:38.543Z,99935.31
2022-12-14T04:07:41.712Z,99939.59
2022-12-14T04:08:41.608Z,99932.88
2022-12-14T04:09:54.219Z,99926.03
2022-12-14T04:11:08.278Z,99926.03
2022-12-14T04:12:25.012Z,99920.25
2022-12-14T04:13:36.633Z,99927.09
2022-12-14T04:14:52.127Z,99916.13
2022-12-14T04:16:02.571Z,99919.66
2022-12-14T04:17:12.398Z,99920.56
2022-12-14T04:18:25.974Z,99920.56
2022-12-14T04:19:29.577Z,99928.19
2022-12-14T04:20:25.215Z,99935.16
2022-12-14T04:21:24.237Z,99926.63
2022-12-14T04:22:18.270Z,99925.97
2022-12-14T04:23:14.441Z,99925.16
2022-12-14T04:24:36.911Z,99926.94
2022-12-14T04:25:50.496Z,99917.63
2022-12-14T04:26:45.423Z,99914.28
2022-12-14T04:27:39.229Z,99915.06
2022-12-14T04:29:06.647Z,99915.97
2022-12-14T04:29:57.459Z,99917.63
2022-12-14T04:30:44.221Z,99920.16
2022-12-14T04:31:34.552Z,99912.66
2022-12-14T04:32:38.771Z,99916.06
2022-12-14T04:33:45.610Z,99911.94
2022-12-14T04:34:35.699Z,99904.31
2022-12-14T04:35:30.770Z,99912.06
2022-12-14T04:36:29.261Z,99914.59
2022-12-14T04:37:20.777Z,99911.94
2022-12-14T04:38:24.897Z,99908.53
2022-12-14T04:39:27.181Z,99911.09
2022-12-14T04:40:25.453Z,99916.16
2022-12-14T04:41:23.208Z,99912.72
2022-12-14T04:42:13.514Z,99911.88
2022-12-14T04:43:07.122Z,99914.50
2022-12-14T04:44:00.131Z,99910.09
2022-12-14T04:44:55.571Z,99910.19
2022-12-14T04:45:51.613Z,99912.06
2022-12-14T04:46:41.141Z,99910.31
2022-12-14T04:47:36.964Z,99905.09
2022-12-14T04:48:51.123Z,99908.53
2022-12-14T04:49:49.140Z,99909.41
2022-12-14T04:51:01.849Z,99901.00
2022-12-14T04:52:05.282Z,99900.22
2022-12-14T04:53:02.976Z,99891.78
2022-12-14T04:53:58.545Z,99904.72
2022-12-14T04:54:56.735Z,99897.19
2022-12-14T04:55:52.162Z,99903.13
2022-12-14T04:57:19.341Z,99896.28
2022-12-14T04:58:26.570Z,99892.19
2022-12-14T04:59:13.368Z,99893.16
2022-12-14T05:00:01.618Z,99900.00
2022-12-14T05:01:12.078Z,99897.47
2022-12-14T05:02:20.041Z,99890.59
2022-12-14T05:03:26.248Z,99894.91
2022-12-14T05:04:29.709Z,99892.59
2022-12-14T05:05:18.816Z,99896.97
2022-12-14T05:06:11.096Z,99892.00
2022-12-14T05:07:35.939Z,99892.88
2022-12-14T05:08:31.030Z,99892.88
2022-12-14T05:09:41.018Z,99886.00
2022-12-14T05:10:41.404Z,99886.81
2022-12-14T05:11:56.935Z,99890.25
2022-12-14T05:12:54.751Z,99887.59
2022-12-14T05:13:49.047Z,99886.72
2022-12-14T05:14:40.426Z,99889.34
2022-12-14T05:15:35.727Z,99885.16
2022-12-14T05:16:25.118Z,99888.56
2022-12-14T05:17:12.992Z,99882.69
2022-12-14T05:18:05.409Z,99878.38
2022-12-14T05:18:52.153Z,99872.50
2022-12-14T05:19:45.451Z,99877.59
2022-12-14T05:20:35.615Z,99878.56
2022-12-14T05:21:40.434Z,99870.88
2022-12-14T05:22:26.948Z,99869.97
2022-12-14T05:23:13.776Z,99869.97
2022-12-14T05:24:02.732Z,99865.66
2022-12-14T05:24:49.175Z,99865.66
2022-12-14T05:25:35.868Z,99865.59
2022-12-14T05:26:22.640Z,99864.69
2022-12-14T05:27:09.486Z,99861.28
2022-12-14T05:27:56.476Z,99853.66
2022-12-14T05:28:47.306Z,99860.50
2022-12-14T05:29:36.712Z,99853.72
2022-12-14T05:30:23.785Z,99851.19
2022-12-14T05:31:10.524Z,99847.84
2022-12-14T05:31:57.398Z,99847.97
2022-12-14T05:32:44.156Z,99841.19
2022-12-14T05:33:30.864Z,99839.44
2022-12-14T05:34:18.535Z,99841.97
2022-12-14T05:35:05.914Z,99834.34
2022-12-14T05:35:52.315Z,99838.56
2022-12-14T05:36:39.011Z,99839.53
2022-12-14T05:37:25.467Z,99839.53
2022-12-14T05:38:13.159Z,99831.91
2022-12-14T05:38:59.886Z,99829.44
2022-12-14T05:39:46.377Z,99831.91
2022-12-14T05:40:32.796Z,99831.91
2022-12-14T05:41:19.268Z,99834.34
2022-12-14T05:42:05.730Z,99829.38
2022-12-14T05:42:55.933Z,99832.00
2022-12-14T05:43:42.685Z,99827.69
2022-12-14T05:44:29.362Z,99832.97
2022-12-14T05:45:15.856Z,99827.28
2022-12-14T05:46:04.574Z,99826.69
2022-12-14T05:46:51.306Z,99825.03
2022-12-14T05:47:37.858Z,99823.25
2022-12-14T05:48:24.621Z,99826.69
2022-12-14T05:49:11.124Z,99828.34
2022-12-14T05:49:57.771Z,99825.81
2022-12-14T05:50:44.398Z,99827.47
2022-12-14T05:51:32.026Z,99824.91
2022-12-14T05:52:18.943Z,99824.91
2022-12-14T05:53:05.543Z,99824.13
2022-12-14T05:53:52.024Z,99825.81
2022-12-14T05:54:38.515Z,99819.94
2022-12-14T05:55:25.064Z,99824.13
2022-12-14T05:56:12.408Z,99818.25
2022-12-14T05:56:59.045Z,99815.81
2022-12-14T05:57:45.508Z,99820.91
2022-12-14T05:58:33.204Z,99822.56
2022-12-14T05:59:19.690Z,99819.16
2022-12-14T06:00:06.679Z,99818.25
2022-12-14T06:00:53.140Z,99814.84
2022-12-14T06:01:39.546Z,99812.38
2022-12-14T06:02:26.185Z,99821.69
2022-12-14T06:03:12.931Z,99820.91
2022-12-14T06:03:59.367Z,99825.09
2022-12-14T06:04:45.887Z,99815.81
2022-12-14T06:05:33.053Z,99818.25
2022-12-14T06:06:20.156Z,99820.00
2022-12-14T06:07:10.072Z,99814.91
2022-12-14T06:07:56.659Z,99814.91
2022-12-14T06:08:46.148Z,99817.56
2022-12-14T06:09:32.677Z,99816.69
2022-12-14T06:10:19.320Z,99820.97
2022-12-14T06:11:17.569Z,99814.13
2022-12-14T06:12:04.161Z,99819.34
2022-12-14T06:12:51.366Z,99817.56
2022-12-14T06:13:39.597Z,99822.66
2022-12-14T06:14:26.127Z,99820.13
2022-12-14T06:15:14.137Z,99817.66
2022-12-14T06:16:14.191Z,99824.44
2022-12-14T06:17:00.872Z,99824.44
2022-12-14T06:17:47.406Z,99819.34
2022-12-14T06:18:33.860Z,99821.88
2022-12-14T06:19:20.328Z,99820.19
2022-12-14T06:20:07.357Z,99816.00
2022-12-14T06:20:53.836Z,99827.16
2022-12-14T06:21:43.479Z,99825.50
2022-12-14T06:22:29.906Z,99817.88
2022-12-14T06:23:16.690Z,99817.09
2022-12-14T06:24:04.833Z,99821.28
2022-12-14T06:24:51.368Z,99819.63
2022-12-14T06:25:37.833Z,99821.28
2022-12-14T06:26:25.135Z,99825.50
2022-12-14T06:27:11.784Z,99829.81
2022-12-14T06:27:58.280Z,99821.28
2022-12-14T06:28:45.180Z,99831.47
2022-12-14T06:29:31.844Z,99824.72
2022-12-14T06:30:18.245Z,99823.81
2022-12-14T06:31:05.565Z,99829.03
2022-12-14T06:31:51.991Z,99819.03
2022-12-14T06:32:38.415Z,99819.81
2022-12-14T06:33:25.287Z,99815.50
2022-12-14T06:34:13.493Z,99824.78
2022-12-14T06:34:59.982Z,99824.78
2022-12-14T06:35:47.267Z,99823.94
2022-12-14T06:36:36.719Z,99825.59
2022-12-14T06:37:23.191Z,99822.97
2022-12-14T06:38:09.570Z,99825.41
2022-12-14T06:38:58.048Z,99824.53
2022-12-14T06:39:49.728Z,99827.16
2022-12-14T06:40:40.936Z,99822.84
2022-12-14T06:41:27.582Z,99825.41
2022-12-14T06:42:14.230Z,99826.19
2022-12-14T06:43:00.668Z,99827.06
2022-12-14T06:43:49.274Z,99821.88
2022-12-14T06:44:37.323Z,99833.81
2022-12-14T06:45:23.782Z,99827.06
2022-12-14T06:46:15.593Z,99835.69
2022-12-14T06:47:04.425Z,99833.22
2022-12-14T06:47:51.053Z,99828.91
2022-12-14T06:48:38.085Z,99829.81
2022-12-14T06:49:25.059Z,99838.31
2022-12-14T06:50:11.513Z,99824.72
2022-12-14T06:51:02.374Z,99829.03
2022-12-14T06:51:49.619Z,99822.16
2022-12-14T06:52:37.429Z,99828.91
2022-12-14T06:53:24.063Z,99828.06
2022-12-14T06:54:12.453Z,99819.63
2022-12-14T06:54:59.097Z,99828.91
2022-12-14T06:55:45.615Z,99833.13
2022-12-14T06:56:36.880Z,99827.16
2022-12-14T06:57:23.298Z,99827.94
2022-12-14T06:58:13.667Z,99828.06
2022-12-14T06:59:00.158Z,99821.19
2022-12-14T06:59:46.615Z,99825.50
2022-12-14T07:00:33.024Z,99822.97
2022-12-14T07:01:29.889Z,99828.13
2022-12-14T07:02:16.808Z,99826.47
2022-12-14T07:03:03.750Z,99823.94
2022-12-14T07:03:56.371Z,99827.44
2022-12-14T07:04:43.044Z,99824.13
2022-12-14T07:05:29.450Z,99822.44
2022-12-14T07:06:16.454Z,99823.41
2022-12-14T07:07:03.089Z,99818.31
2022-12-14T07:07:49.634Z,99819.22
2022-12-14T07:08:38.624Z,99824.31
2022-12-14T07:09:25.205Z,99823.50
2022-12-14T07:10:12.795Z,99821.75
2022-12-14T07:11:11.362Z,99816.66
2022-12-14T07:11:58.032Z,99819.22
2022-12-14T07:12:44.504Z,99819.22
2022-12-14T07:13:31.148Z,99818.31
2022-12-14T07:14:18.014Z,99818.31
2022-12-14T07:15:05.436Z,99812.34
2022-12-14T07:15:54.150Z,99821.66
2022-12-14T07:16:42.603Z,99819.09
2022-12-14T07:17:30.602Z,99817.34
2022-12-14T07:18:17.019Z,99816.47
2022-12-14T07:19:04.736Z,99811.38
2022-12-14T07:19:51.370Z,99815.69
2022-12-14T07:20:38.077Z,99813.94
2022-12-14T07:21:25.562Z,99814.00
2022-12-14T07:22:12.696Z,99812.25
2022-12-14T07:22:59.155Z,99813.94
2022-12-14T07:23:47.899Z,99815.69
2022-12-14T07:24:34.413Z,99820.00
2022-12-14T07:25:20.973Z,99820.06
2022-12-14T07:26:14.501Z,99820.06
2022-12-14T07:27:00.972Z,99819.22
2022-12-14T07:27:47.646Z,99822.63
2022-12-14T07:28:37.243Z,99826.84
2022-12-14T07:29:23.813Z,99824.19
2022-12-14T07:30:11.517Z,99826.06
2022-12-14T07:30:59.988Z,99821.41
2022-12-14T07:31:49.440Z,99827.47
2022-12-14T07:32:36.486Z,99824.13
2022-12-14T07:33:23.105Z,99823.38
2022-12-14T07:34:12.865Z,99824.94
2022-12-14T07:34:59.275Z,99820.84
2022-12-14T07:35:45.742Z,99826.78
2022-12-14T07:36:34.933Z,99834.44
2022-12-14T07:37:21.364Z,99821.53
2022-12-14T07:38:07.818Z,99826.59
2022-12-14T07:38:58.204Z,99823.94
2022-12-14T07:39:46.287Z,99820.53
2022-12-14T07:40:35.831Z,99821.34
2022-12-14T07:41:29.507Z,99819.56
2022-12-14T07:42:16.074Z,99827.28
2022-12-14T07:43:06.806Z,99814.56
2022-12-14T07:43:55.400Z,99823.88
2022-12-14T07:44:42.074Z,99816.25
2022-12-14T07:45:28.693Z,99818.69
2022-12-14T07:46:18.852Z,99821.41
2022-12-14T07:47:05.462Z,99824.06
2022-12-14T07:47:52.067Z,99826.69
2022-12-14T07:48:39.260Z,99825.81
2022-12-14T07:49:25.858Z,99823.28
2022-12-14T07:50:12.538Z,99826.59
2022-12-14T07:51:19.747Z,99828.47
2022-12-14T07:52:06.232Z,99829.22
2022-12-14T07:52:52.818Z,99829.22
2022-12-14T07:53:40.317Z,99825.03
2022-12-14T07:54:27.096Z,99830.22
2022-12-14T07:55:13.573Z,99825.13
2022-12-14T07:56:04.658Z,99837.16
2022-12-14T07:56:51.699Z,99830.41
2022-12-14T07:57:40.683Z,99835.50
2022-12-14T07:58:27.158Z,99838.06
2022-12-14T07:59:19.123Z,99831.38
2022-12-14T08:00:06.401Z,99838.25
2022-12-14T08:01:18.844Z,99832.63
2022-12-14T08:02:06.127Z,99837.09
2022-12-14T08:02:56.169Z,99827.00
2022-12-14T08:03:48.208Z,99835.53
2022-12-14T08:04:35.014Z,99838.00
2022-12-14T08:05:21.443Z,99831.22
2022-12-14T08:06:10.365Z,99836.50
2022-12-14T08:06:59.142Z,99832.38
2022-12-14T08:07:45.706Z,99836.59
2022-12-14T08:08:33.071Z,99835.03
2022-12-14T08:09:20.104Z,99830.03
2022-12-14T08:10:07.484Z,99831.00
2022-12-14T08:10:54.235Z,99832.16
2022-12-14T08:11:40.911Z,99829.78
2022-12-14T08:12:27.335Z,99822.31
2022-12-14T08:13:13.744Z,99823.28
2022-12-14T08:14:03.350Z,99823.19
2022-12-14T08:14:49.774Z,99818.19
2022-12-14T08:15:38.724Z,99828.38
2022-12-14T08:16:26.241Z,99822.50
2022-12-14T08:17:12.942Z,99826.00
2022-12-14T08:17:59.345Z,99825.09
2022-12-14T08:18:46.002Z,99829.53
2022-12-14T08:19:32.467Z,99824.44
2022-12-14T08:20:19.140Z,99828.84
2022-12-14T08:21:07.922Z,99833.38
2022-12-14T08:21:54.753Z,99839.44
2022-12-14T08:22:41.399Z,99831.63
2022-12-14T08:23:29.052Z,99826.63
2022-12-14T08:24:16.955Z,99833.56
2022-12-14T08:25:03.698Z,99835.31
2022-12-14T08:25:58.579Z,99831.13
2022-12-14T08:26:48.932Z,99830.34
2022-12-14T08:27:35.861Z,99834.63
2022-12-14T08:28:25.729Z,99831.31
2022-12-14T08:29:14.750Z,99836.47
2022-12-14T08:30:01.236Z,99820.38
2022-12-14T08:30:47.937Z,99821.34
2022-12-14T08:31:34.815Z,99829.97
2022-12-14T08:32:21.275Z,99814.78
2022-12-14T08:33:07.703Z,99821.91
2022-12-14T08:33:55.066Z,99816.06
2022-12-14T08:34:41.540Z,99819.16
2022-12-14T08:35:27.915Z,99821.00
2022-12-14T08:36:17.970Z,99811.59
2022-12-14T08:37:04.413Z,99821.44
2022-12-14T08:37:52.542Z,99817.16
2022-12-14T08:38:40.435Z,99816.16
2022-12-14T08:39:26.875Z,99821.97
2022-12-14T08:40:13.605Z,99820.22
2022-12-14T08:41:14.772Z,99818.78
2022-12-14T08:42:12.391Z,99819.59
2022-12-14T08:42:59.003Z,99817.84
2022-12-14T08:43:50.684Z,99813.44
2022-12-14T08:44:37.140Z,99814.16
2022-12-14T08:45:23.544Z,99808.16
2022-12-14T08:46:10.758Z,99813.97
2022-12-14T08:46:57.496Z,99814.78
2022-12-14T08:47:44.124Z,99816.53
2022-12-14T08:48:31.645Z,99812.28
2022-12-14T08:49:18.260Z,99811.44
2022-12-14T08:50:05.360Z,99818.28
2022-12-14T08:50:52.617Z,99811.78
2022-12-14T08:51:39.062Z,99816.06
2022-12-14T08:52:25.523Z,99820.50
2022-12-14T08:53:11.959Z,99821.25
2022-12-14T08:53:58.499Z,99819.69
2022-12-14T08:54:44.906Z,99819.69
2022-12-14T08:55:38.216Z,99818.00
2022-12-14T08:56:27.933Z,99813.69
2022-12-14T08:57:15.920Z,99813.69
2022-12-14T08:58:02.348Z,99814.66
2022-12-14T08:58:49.359Z,99819.75
2022-12-14T09:00:00.886Z,99823.28
2022-12-14T09:00:43.290Z,99823.38
2022-12-14T09:01:34.443Z,99821.97
2022-12-14T09:02:24.963Z,99826.44
2022-12-14T09:03:11.941Z,99821.41
2022-12-14T09:04:04.778Z,99823.00
2022-12-14T09:04:51.707Z,99827.28
2022-12-14T09:05:38.675Z,99828.19
2022-12-14T09:06:29.131Z,99825.81
2022-12-14T09:07:16.205Z,99830.56
2022-12-14T09:08:02.927Z,99834.94
2022-12-14T09:08:50.096Z,99831.41
2022-12-14T09:09:37.231Z,99828.81
2022-12-14T09:10:23.734Z,99839.88
2022-12-14T09:11:12.996Z,99834.88
2022-12-14T09:12:03.307Z,99834.75
2022-12-14T09:12:50.431Z,99838.63
2022-12-14T09:13:36.882Z,99835.25
2022-12-14T09:14:23.402Z,99842.06
2022-12-14T09:15:10.902Z,99844.78
2022-12-14T09:15:59.770Z,99843.97
2022-12-14T09:16:46.583Z,99837.97
2022-12-14T09:17:34.425Z,99846.53
2022-12-14T09:18:21.205Z,99843.19
2022-12-14T09:19:07.849Z,99839.66
2022-12-14T09:19:54.388Z,99840.53
2022-12-14T09:20:43.087Z,99841.44
2022-12-14T09:21:32.530Z,99844.06
2022-12-14T09:22:19.046Z,99840.69
2022-12-14T09:23:05.631Z,99842.38
2022-12-14T09:23:57.320Z,99846.53
2022-12-14T09:24:45.903Z,99850.13
2022-12-14T09:25:33.710Z,99843.34
2022-12-14T09:26:22.493Z,99842.47
2022-12-14T09:27:09.208Z,99840.97
2022-12-14T09:27:55.829Z,99847.81
2022-12-14T09:28:48.832Z,99848.72
2022-12-14T09:29:35.388Z,99844.22
2022-12-14T09:30:26.587Z,99850.47
2022-12-14T09:31:15.732Z,99840.34
2022-12-14T09:32:02.667Z,99837.94
2022-12-14T09:32:50.779Z,99840.59
2022-12-14T09:33:37.710Z,99847.47
2022-12-14T09:34:25.257Z,99841.41
2022-12-14T09:35:11.833Z,99854.56
2022-12-14T09:36:08.305Z,99854.97
2022-12-14T09:36:54.765Z,99845.56
2022-12-14T09:37:41.393Z,99847.22
2022-12-14T09:38:31.427Z,99848.81
2022-12-14T09:39:17.992Z,99852.09
2022-12-14T09:40:06.101Z,99852.00
2022-12-14T09:41:05.896Z,99852.97
2022-12-14T09:42:41.352Z,99849.63
2022-12-14T09:43:42.070Z,99854.72
2022-12-14T09:44:49.159Z,99857.53
2022-12-14T09:45:48.610Z,99852.53
2022-12-14T09:46:50.177Z,99868.06
2022-12-14T09:48:04.408Z,99867.44
2022-12-14T09:48:54.412Z,99868.25
2022-12-14T09:49:51.215Z,99864.66
2022-12-14T09:50:40.155Z,99865.53
2022-12-14T09:51:35.236Z,99862.97
2022-12-14T09:52:43.055Z,99856.22
2022-12-14T09:53:30.845Z,99861.47
2022-12-14T09:54:25.061Z,99858.19
2022-12-14T09:55:23.211Z,99864.09
2022-12-14T09:56:17.284Z,99859.94
2022-12-14T09:57:26.978Z,99861.78
2022-12-14T09:58:20.098Z,99859.25
2022-12-14T09:59:11.996Z,99856.69
2022-12-14T09:59:58.812Z,99858.91
2022-12-14T10:01:05.350Z,99853.56
2022-12-14T10:02:36.475Z,99853.09
2022-12-14T10:03:37.337Z,99856.53
2022-12-14T10:04:47.648Z,99860.03
2022-12-14T10:05:48.679Z,99855.78
2022-12-14T10:06:53.535Z,99856.69
2022-12-14T10:07:52.548Z,99857.81
2022-12-14T10:08:55.100Z,99851.91
2022-12-14T10:09:51.459Z,99862.91